Time;durP1;ratioP1;P1;durP2;ratioP2;P2;SDS_P1;SDS_P2;PMS_P1;PMS_P2;Temp;Humidity;BMP_temperature;BMP_pressure;BME280_temperature;BME280_humidity;BME280_pressure;Samples;Min_cycle;Max_cycle;Signal;HPM_P1;HPM_P2
2022/06/08 00:00:49;;;;;;;5.85;3.10;;;;;;;14.55;81.23;96409.16;4726888;30;20060;-59
2022/06/08 00:03:21;;;;;;;5.90;3.00;;;;;;;14.88;82.33;96503.25;4727616;30;20079;-59
2022/06/08 00:05:49;;;;;;;3.65;3.05;;;;;;;14.98;82.37;96521.91;4726877;30;20060;-58
2022/06/08 00:08:15;;;;;;;4.85;3.22;;;;;;;15.16;84.08;96550.41;4727108;30;20064;-57
2022/06/08 00:10:42;;;;;;;4.75;2.97;;;;;;;14.73;84.78;96493.44;4726643;30;20061;-58
2022/06/08 00:13:09;;;;;;;5.97;3.22;;;;;;;15.00;84.34;96525.09;4739015;30;20168;-59
2022/06/08 00:15:37;;;;;;;3.95;2.97;;;;;;;15.25;83.13;96545.19;4726335;30;20071;-58
2022/06/08 00:18:05;;;;;;;4.10;3.03;;;;;;;15.28;83.64;96552.72;4727016;30;20066;-58
2022/06/08 00:20:32;;;;;;;4.70;3.42;;;;;;;15.00;84.81;96536.25;4726763;30;20071;-56
2022/06/08 00:22:59;;;;;;;4.82;3.38;;;;;;;15.09;84.67;96544.91;4726732;30;20562;-56
2022/06/08 00:25:26;;;;;;;4.93;3.22;;;;;;;15.08;83.49;96543.31;4726531;30;20453;-58
2022/06/08 00:27:53;;;;;;;7.28;2.92;;;;;;;15.06;83.69;96535.34;4725082;30;20060;-58
2022/06/08 00:30:19;;;;;;;5.50;3.40;;;;;;;14.75;84.37;96489.03;4726011;30;20065;-57
2022/06/08 00:32:46;;;;;;;4.13;3.10;;;;;;;15.03;84.46;96546.56;4725075;30;20079;-59
2022/06/08 00:35:13;;;;;;;7.53;3.30;;;;;;;14.89;84.83;96547.47;4726240;30;20060;-58
2022/06/08 00:37:41;;;;;;;4.85;3.42;;;;;;;14.88;85.41;96553.44;4726478;30;20193;-58
2022/06/08 00:40:10;;;;;;;4.32;3.40;;;;;;;14.25;85.91;96445.22;4725869;30;20067;-60
2022/06/08 00:42:40;;;;;;;8.00;2.70;;;;;;;14.41;86.08;96478.94;4726156;30;20061;-59
2022/06/08 00:45:14;;;;;;;4.35;3.17;;;;;;;14.81;85.83;96536.78;4725923;30;20064;-57
2022/06/08 00:47:46;;;;;;;4.57;3.05;;;;;;;14.87;85.68;96535.91;4726145;30;20122;-56
2022/06/08 00:50:21;;;;;;;4.35;3.25;;;;;;;14.86;84.90;96541.91;4724556;30;20548;-57
2022/06/08 00:52:49;;;;;;;3.67;2.90;;;;;;;14.82;85.17;96536.38;4726740;30;20069;-57
2022/06/08 00:55:19;;;;;;;3.25;2.90;;;;;;;14.79;85.62;96530.81;4725935;30;20072;-57
2022/06/08 00:57:51;;;;;;;5.47;2.60;;;;;;;14.70;85.76;96528.50;4725944;30;20095;-57
2022/06/08 01:00:26;;;;;;;3.08;2.65;;;;;;;14.78;85.56;96537.59;4725732;30;20061;-58
2022/06/08 01:02:53;;;;;;;6.80;3.40;;;;;;;14.67;86.44;96531.28;4726140;30;20057;-60
2022/06/08 01:05:33;;;;;;;5.22;3.10;;;;;;;14.28;86.45;96477.81;4725697;30;20060;-57
2022/06/08 01:08:12;;;;;;;3.35;2.80;;;;;;;14.65;86.84;96536.50;4739054;30;20079;-57
2022/06/08 01:10:45;;;;;;;4.63;2.63;;;;;;;14.64;87.02;96532.13;4726344;30;20099;-57
2022/06/08 01:13:12;;;;;;;5.75;3.20;;;;;;;14.69;86.67;96537.25;4726320;30;20068;-57
2022/06/08 01:15:42;;;;;;;4.65;2.92;;;;;;;14.60;86.79;96514.63;4738584;30;20084;-57
2022/06/08 01:18:10;;;;;;;6.35;3.13;;;;;;;14.72;85.20;96526.09;4725869;30;20155;-57
2022/06/08 01:20:47;;;;;;;3.63;2.58;;;;;;;14.69;86.02;96529.69;4725376;30;20081;-57
2022/06/08 01:23:16;;;;;;;10.75;3.63;;;;;;;14.73;86.19;96532.47;4725229;30;20073;-58
2022/06/08 01:26:04;;;;;;;4.43;3.83;;;;;;;14.24;85.43;96491.78;4725265;30;20067;-60
2022/06/08 01:28:47;;;;;;;4.05;2.78;;;;;;;14.49;85.90;96527.84;4725513;30;20072;-59
2022/06/08 01:31:33;;;;;;;5.25;2.88;;;;;;;14.03;87.37;96482.72;4725645;30;20068;-59
2022/06/08 01:34:03;;;;;;;3.67;2.78;;;;;;;14.24;87.39;96516.03;4725389;30;20072;-59
2022/06/08 01:36:44;;;;;;;5.25;3.30;;;;;;;14.29;87.60;96532.38;4725124;30;20071;-58
2022/06/08 01:39:30;;;;;;;3.80;3.10;;;;;;;13.74;87.33;96465.38;4738781;30;20437;-59
2022/06/08 01:42:10;;;;;;;6.50;4.00;;;;;;;13.83;91.77;96528.97;4743480;30;20079;-58
2022/06/08 01:47:57;;;;;;;6.75;3.60;;;;;;;14.06;90.46;96534.81;4725662;30;20069;-58
2022/06/08 01:50:51;;;;;;;7.00;3.67;;;;;;;14.11;90.85;96534.41;4737584;30;20071;-60
2022/06/08 01:53:55;;;;;;;7.07;3.75;;;;;;;14.27;90.75;96534.75;4725991;30;20069;-59
2022/06/08 01:56:51;;;;;;;;;;;;;;;13.60;94.24;96540.56;4738923;30;20056;-58
2022/06/08 02:00:16;;;;;;;7.75;3.92;;;;;;;13.47;97.49;96533.84;4721685;30;19931;-58
2022/06/08 02:02:50;;;;;;;9.77;3.95;;;;;;;13.76;95.87;96540.13;4758088;30;20071;-59
2022/06/08 02:05:17;;;;;;;6.13;3.13;;;;;;;13.89;93.96;96533.72;4743168;30;20060;-58
2022/06/08 02:07:54;;;;;;;7.13;3.33;;;;;;;13.97;93.51;96537.25;4740278;30;20064;-58
2022/06/08 02:10:33;;;;;;;4.47;3.20;;;;;;;14.07;92.04;96534.41;4725374;30;20445;-59
2022/06/08 02:13:35;;;;;;;4.63;3.33;;;;;;;14.27;90.31;96537.53;4725303;30;20095;-58
2022/06/08 02:16:34;;;;;;;6.53;3.30;;;;;;;14.23;89.89;96531.94;4724835;30;20064;-58
2022/06/08 02:19:08;;;;;;;5.63;3.40;;;;;;;13.90;90.25;96509.44;4711998;30;20519;-60
2022/06/08 02:21:46;;;;;;;8.77;3.45;;;;;;;14.13;89.64;96532.03;4725210;30;20060;-57
2022/06/08 02:24:12;;;;;;;4.80;3.40;;;;;;;14.12;89.08;96530.41;4725085;30;20642;-57
2022/06/08 02:26:44;;;;;;;6.55;3.22;;;;;;;13.54;89.84;96455.91;4724632;30;20091;-58
2022/06/08 02:29:15;;;;;;;5.97;3.25;;;;;;;13.94;90.76;96521.38;4725211;30;20509;-59
2022/06/08 02:31:58;;;;;;;7.75;2.90;;;;;;;13.93;89.89;96533.69;4737924;30;20490;-58
2022/06/08 02:34:36;;;;;;;4.70;2.95;;;;;;;13.74;91.44;96532.16;4738225;30;20128;-58
2022/06/08 02:37:24;;;;;;;4.97;3.63;;;;;;;13.54;92.78;96506.00;4728310;30;20069;-58
2022/06/08 02:39:57;;;;;;;4.00;2.95;;;;;;;13.32;93.01;96496.94;4728483;30;20072;-58
2022/06/08 02:42:28;;;;;;;5.72;3.13;;;;;;;13.20;93.02;96466.75;4728305;30;20104;-57
2022/06/08 02:45:05;;;;;;;7.80;3.22;;;;;;;13.43;92.11;96488.56;4728455;30;20060;-58
2022/06/08 02:47:36;;;;;;;4.20;3.53;;;;;;;13.81;90.83;96548.06;4728436;30;20521;-58
2022/06/08 02:50:06;;;;;;;4.15;3.20;;;;;;;13.70;90.48;96529.41;4727935;30;20064;-57
2022/06/08 02:52:33;;;;;;;5.15;2.72;;;;;;;13.91;91.35;96602.91;4728189;30;20979;-57
2022/06/08 02:54:59;;;;;;;4.22;2.90;;;;;;;13.88;91.07;96548.03;4727917;30;20068;-57
2022/06/08 02:57:41;;;;;;;5.15;3.15;;;;;;;13.91;91.02;96544.44;4712055;30;20095;-58
2022/06/08 03:00:11;;;;;;;4.40;3.10;;;;;;;13.77;91.60;96550.06;4727821;30;20612;-59
2022/06/08 03:02:55;;;;;;;5.43;2.90;;;;;;;13.81;92.06;96559.19;4740732;30;20118;-61
2022/06/08 03:05:27;;;;;;;4.20;3.42;;;;;;;13.24;95.64;96559.34;4727727;30;20072;-59
2022/06/08 03:08:13;;;;;;;5.40;3.67;;;;;;;13.02;94.81;96468.81;4741162;30;20493;-58
2022/06/08 03:10:43;;;;;;;6.65;3.10;;;;;;;13.63;93.55;96554.47;4740794;30;20164;-58
2022/06/08 03:13:29;;;;;;;3.35;2.80;;;;;;;13.79;93.51;96558.78;4727677;30;20061;-59
2022/06/08 03:16:07;;;;;;;8.32;3.90;;;;;;;13.58;92.51;96552.09;4740955;30;20068;-58
2022/06/08 03:18:34;;;;;;;5.63;3.45;;;;;;;13.80;92.95;96552.81;4728040;30;20529;-59
2022/06/08 03:21:04;;;;;;;3.72;3.25;;;;;;;13.95;91.43;96545.22;4727195;30;20064;-59
2022/06/08 03:23:31;;;;;;;5.28;3.00;;;;;;;13.53;92.34;96504.44;4728036;30;20072;-57
2022/06/08 03:25:58;;;;;;;5.45;3.28;;;;;;;14.03;90.93;96552.34;4727449;30;20071;-58
2022/06/08 03:28:25;;;;;;;7.03;3.05;;;;;;;13.88;90.13;96497.94;4727656;30;20061;-58
2022/06/08 03:30:51;;;;;;;4.15;3.13;;;;;;;14.27;89.16;96543.13;4726953;30;20080;-57
2022/06/08 03:33:18;;;;;;;3.28;2.60;;;;;;;14.00;89.46;96514.97;4740216;30;20517;-57
2022/06/08 03:35:45;;;;;;;5.40;2.92;;;;;;;14.32;88.24;96535.09;4727227;30;20068;-59
2022/06/08 03:38:11;;;;;;;4.18;3.08;;;;;;;14.03;87.86;96485.50;4711470;30;20072;-57
2022/06/08 03:40:38;;;;;;;4.70;2.80;;;;;;;14.17;87.48;96499.34;4727240;30;20159;-60
2022/06/08 03:43:05;;;;;;;5.15;3.15;;;;;;;14.05;88.07;96492.28;4727558;30;20083;-57
2022/06/08 03:45:44;;;;;;;4.20;2.63;;;;;;;14.57;86.66;96529.41;4726748;30;20061;-58
2022/06/08 03:48:12;;;;;;;4.82;2.70;;;;;;;14.87;86.27;96549.09;4726284;30;20064;-57
2022/06/08 03:50:43;;;;;;;8.13;3.20;;;;;;;14.52;85.71;96477.66;4727053;30;20260;-57
2022/06/08 03:53:15;;;;;;;4.78;3.13;;;;;;;14.81;85.12;96500.53;4727307;30;20060;-57
2022/06/08 03:55:42;;;;;;;4.45;2.90;;;;;;;15.08;84.16;96560.06;4726890;30;20064;-57
2022/06/08 03:58:09;;;;;;;5.32;2.80;;;;;;;15.17;84.42;96560.41;4727333;30;20072;-57
2022/06/08 04:00:36;;;;;;;5.40;3.35;;;;;;;15.15;83.74;96526.53;4740150;30;20079;-58
2022/06/08 04:03:04;;;;;;;3.78;3.20;;;;;;;15.47;82.97;96554.97;4740467;30;20065;-57
2022/06/08 04:05:31;;;;;;;4.15;3.10;;;;;;;15.54;83.27;96552.09;4726855;30;20072;-57
2022/06/08 04:07:58;;;;;;;3.08;2.70;;;;;;;15.71;81.28;96553.88;4739975;30;20065;-57
2022/06/08 04:10:25;;;;;;;5.97;2.97;;;;;;;15.59;81.32;96520.13;4739820;30;20083;-57
2022/06/08 04:12:52;;;;;;;6.43;3.17;;;;;;;15.45;81.56;96489.56;4739532;30;20068;-57
2022/06/08 04:18:04;;;;;;;10.98;3.35;;;;;;;16.21;79.89;96559.69;4726769;30;20065;-58
2022/06/08 04:20:31;;;;;;;4.20;3.20;;;;;;;16.00;80.47;96559.94;4740110;30;20145;-58
2022/06/08 04:22:57;;;;;;;3.88;2.80;;;;;;;16.18;79.78;96575.31;4726532;30;20071;-58
2022/06/08 04:25:24;;;;;;;3.83;2.78;;;;;;;16.05;79.25;96512.00;4726397;30;20088;-58
2022/06/08 04:27:51;;;;;;;3.78;3.10;;;;;;;16.49;78.71;96562.94;4726387;30;20068;-58
2022/06/08 04:30:18;;;;;;;3.53;2.80;;;;;;;16.56;77.88;96560.06;4724585;30;20526;-60
2022/06/08 04:32:45;;;;;;;6.90;3.30;;;;;;;16.26;77.81;96470.59;4726036;30;20068;-58
2022/06/08 04:35:12;;;;;;;6.20;3.00;;;;;;;17.03;77.00;96560.13;4726286;30;20377;-58
2022/06/08 04:37:39;;;;;;;6.15;3.33;;;;;;;17.11;75.69;96550.41;4725989;30;20076;-59
2022/06/08 04:40:09;;;;;;;3.45;2.88;;;;;;;17.35;74.72;96554.81;4739887;30;20060;-57
2022/06/08 04:42:37;;;;;;;3.90;2.80;;;;;;;17.52;74.02;96553.72;4726114;30;20065;-58
2022/06/08 04:45:06;;;;;;;6.53;3.35;;;;;;;17.20;73.13;96480.72;4725707;30;20540;-60
2022/06/08 04:47:33;;;;;;;6.47;3.42;;;;;;;17.27;72.87;96497.34;4738494;30;20866;-60
2022/06/08 04:50:00;;;;;;;7.80;3.80;;;;;;;17.85;72.84;96545.09;4739195;30;20082;-61
2022/06/08 04:52:27;;;;;;;4.15;3.20;;;;;;;17.84;72.51;96542.72;4724829;30;20060;-62
2022/06/08 04:54:54;;;;;;;7.03;4.43;;;;;;;17.66;72.64;96514.25;4725939;30;20067;-63
2022/06/08 04:57:20;;;;;;;8.10;3.60;;;;;;;17.86;73.05;96541.06;4724874;30;20072;-59
2022/06/08 04:59:47;;;;;;;4.28;3.65;;;;;;;18.00;72.12;96540.00;4724605;30;20061;-63
2022/06/08 05:02:42;;;;;;;5.95;3.72;;;;;;;18.03;73.14;96544.75;4724715;30;20075;-63
2022/06/08 05:05:01;;;;;;;6.03;3.90;;;;;;;18.10;73.01;96555.81;4725650;30;20554;-64
2022/06/08 05:07:27;;;;;;;6.65;4.90;;;;;;;18.22;73.09;96549.56;4725689;30;20437;-63
2022/06/08 05:09:54;;;;;;;6.22;4.00;;;;;;;18.43;72.19;96546.31;4724540;30;20067;-64
2022/06/08 05:12:20;;;;;;;4.50;3.35;;;;;;;18.47;72.11;96547.06;4725713;30;20068;-63
2022/06/08 05:14:47;;;;;;;6.15;3.55;;;;;;;18.50;72.35;96551.78;4724439;30;20540;-63
2022/06/08 05:17:14;;;;;;;4.13;3.67;;;;;;;18.52;72.71;96546.56;4739291;30;20068;-63
2022/06/08 05:19:41;;;;;;;4.35;3.38;;;;;;;18.20;73.32;96507.16;4726050;30;20071;-59
2022/06/08 05:22:07;;;;;;;3.63;3.25;;;;;;;18.03;73.12;96458.66;4725303;30;20064;-59
2022/06/08 05:24:34;;;;;;;4.90;3.65;;;;;;;18.67;72.74;96545.00;4724488;30;20064;-64
2022/06/08 05:27:01;;;;;;;4.28;3.78;;;;;;;18.21;72.13;96438.63;4725416;30;20068;-63
2022/06/08 05:29:27;;;;;;;4.13;3.30;;;;;;;19.08;70.75;96553.66;4738817;30;20147;-64
2022/06/08 05:31:55;;;;;;;6.25;3.40;;;;;;;19.46;68.97;96559.56;4725834;30;20072;-63
2022/06/08 05:34:24;;;;;;;3.03;2.80;;;;;;;19.72;65.49;96552.06;4725948;30;20056;-63
2022/06/08 05:36:50;;;;;;;4.93;2.80;;;;;;;19.87;64.81;96551.25;4738550;30;20064;-64
2022/06/08 05:39:17;;;;;;;5.95;3.00;;;;;;;19.55;64.86;96493.06;4725136;30;20081;-64
2022/06/08 05:41:44;;;;;;;3.67;2.58;;;;;;;20.22;64.54;96557.91;4725384;30;20548;-64
2022/06/08 05:44:10;;;;;;;3.45;2.80;;;;;;;20.40;64.38;96556.19;4725167;30;20080;-64
2022/06/08 05:46:37;;;;;;;3.35;3.05;;;;;;;20.43;63.75;96548.88;4725184;30;20510;-63
2022/06/08 05:49:04;;;;;;;3.30;2.92;;;;;;;20.76;61.86;96547.47;4724338;30;20693;-63
2022/06/08 05:51:31;;;;;;;4.50;3.20;;;;;;;20.76;61.37;96528.56;4725326;30;20064;-62
2022/06/08 05:53:58;;;;;;;3.78;3.38;;;;;;;20.76;60.71;96486.31;4721202;30;20068;-67
2022/06/08 05:56:24;;;;;;;4.43;3.15;;;;;;;20.68;60.28;96447.59;4722888;30;20456;-67
2022/06/08 05:58:58;;;;;;;4.57;3.20;;;;;;;21.20;59.23;96509.09;4722312;30;20126;-75
2022/06/08 06:01:24;;;;;;;4.03;3.63;;;;;;;21.39;58.67;96522.91;4723541;30;20052;-60
2022/06/08 06:03:52;;;;;;;4.13;3.53;;;;;;;21.54;58.89;96529.66;4714594;30;20087;-65
2022/06/08 06:06:19;;;;;;;5.20;3.28;;;;;;;21.89;56.30;96522.78;4740155;30;20064;-65
2022/06/08 06:08:46;;;;;;;5.07;3.47;;;;;;;22.01;54.82;96507.84;4742309;30;20052;-72
2022/06/08 06:11:13;;;;;;;5.20;3.40;;;;;;;22.17;53.43;96490.75;4744945;30;20087;-60
2022/06/08 06:13:41;;;;;;;3.55;3.00;;;;;;;22.25;52.72;96483.59;4746103;30;20056;-60
2022/06/08 06:16:08;;;;;;;4.05;2.42;;;;;;;22.56;52.56;96502.63;4744985;30;20076;-70
2022/06/08 06:18:35;;;;;;;3.95;2.90;;;;;;;22.60;53.00;96501.22;4745254;30;20060;-59
2022/06/08 06:21:02;;;;;;;3.85;2.90;;;;;;;22.81;53.05;96519.38;4745952;30;20071;-57
2022/06/08 06:23:29;;;;;;;4.60;3.00;;;;;;;22.83;53.44;96500.72;4745462;30;20048;-68
2022/06/08 06:25:56;;;;;;;4.32;2.90;;;;;;;23.12;51.61;96523.75;4734566;30;20068;-59
2022/06/08 06:28:22;;;;;;;3.45;3.17;;;;;;;22.82;51.77;96487.84;4742260;30;20071;-63
2022/06/08 06:30:49;;;;;;;7.63;3.50;;;;;;;23.18;52.73;96521.88;4745758;30;20079;-59
2022/06/08 06:33:16;;;;;;;5.97;3.42;;;;;;;23.20;51.58;96487.50;4758391;30;20673;-60
2022/06/08 06:35:43;;;;;;;4.43;2.90;;;;;;;23.51;51.04;96519.34;4745024;30;20426;-70
2022/06/08 06:38:10;;;;;;;4.53;3.30;;;;;;;23.74;50.95;96518.75;4745899;30;20060;-69
2022/06/08 06:40:37;;;;;;;7.30;3.22;;;;;;;23.56;50.30;96473.47;4758041;30;20060;-59
2022/06/08 06:43:05;;;;;;;4.13;3.30;;;;;;;23.63;50.74;96505.06;4738533;30;20079;-61
2022/06/08 06:45:32;;;;;;;4.43;3.25;;;;;;;23.33;50.11;96409.81;4743692;30;20064;-72
2022/06/08 06:47:58;;;;;;;3.35;3.05;;;;;;;24.29;48.76;96514.72;4749630;30;20056;-70
2022/06/08 06:50:25;;;;;;;4.05;2.85;;;;;;;24.56;48.41;96517.50;4745353;30;20071;-64
2022/06/08 06:52:52;;;;;;;8.77;2.97;;;;;;;24.71;46.50;96507.09;4745395;30;20065;-72
2022/06/08 06:55:24;;;;;;;4.07;3.00;;;;;;;24.74;46.86;96500.47;4759945;30;20055;-74
2022/06/08 06:57:51;;;;;;;3.47;3.05;;;;;;;24.73;46.69;96498.91;4741978;30;20052;-61
2022/06/08 07:00:18;;;;;;;4.53;3.40;;;;;;;24.95;46.66;96499.47;4741742;30;20460;-61
2022/06/08 07:02:44;;;;;;;3.97;3.20;;;;;;;24.59;46.52;96445.72;4737818;30;20586;-61
2022/06/08 07:05:26;;;;;;;3.38;3.13;;;;;;;25.00;46.29;96492.34;4753306;30;20064;-65
2022/06/08 07:07:52;;;;;;;3.58;3.33;;;;;;;24.71;45.66;96433.44;4744637;30;20056;-61
2022/06/08 07:10:20;;;;;;;4.97;3.50;;;;;;;24.74;46.09;96491.19;4745402;30;20066;-67
2022/06/08 07:12:47;;;;;;;3.80;3.28;;;;;;;24.32;46.55;96476.94;4744071;30;20489;-57
2022/06/08 07:15:17;;;;;;;4.20;3.40;;;;;;;23.11;46.09;96228.28;4744598;30;20538;-63
2022/06/08 07:17:44;;;;;;;5.05;3.30;;;;;;;24.97;45.81;96474.28;4741749;30;20444;-63
2022/06/08 07:20:13;;;;;;;4.90;3.40;;;;;;;25.12;45.67;96480.00;4744755;30;20068;-63
2022/06/08 07:22:39;;;;;;;12.93;5.18;;;;;;;25.27;45.38;96481.69;4737693;30;20068;-59
2022/06/08 07:25:08;;;;;;;7.97;4.78;;;;;;;24.87;46.67;96475.56;4744063;30;20072;-64
2022/06/08 07:27:35;;;;;;;4.07;3.67;;;;;;;24.72;46.15;96463.31;4750565;30;20072;-60
2022/06/08 07:30:04;;;;;;;6.72;3.90;;;;;;;24.79;46.14;96519.66;4743527;30;20059;-64
2022/06/08 07:32:31;;;;;;;6.55;4.50;;;;;;;24.90;46.94;96479.47;4737897;30;20142;-68
2022/06/08 07:34:57;;;;;;;3.80;3.50;;;;;;;25.16;45.14;96474.97;4756835;30;20086;-58
2022/06/08 07:37:25;;;;;;;4.40;3.80;;;;;;;24.66;44.92;96366.09;4747683;30;20081;-65
2022/06/08 07:39:52;;;;;;;5.40;3.65;;;;;;;25.57;45.37;96464.81;4746875;30;20068;-64
2022/06/08 07:42:19;;;;;;;4.78;3.30;;;;;;;25.48;45.14;96467.72;4748890;30;20080;-60
2022/06/08 07:44:45;;;;;;;3.17;2.88;;;;;;;25.14;44.64;96415.13;4744739;30;20079;-60
2022/06/08 07:47:12;;;;;;;3.72;3.30;;;;;;;25.49;44.88;96469.28;4743837;30;20068;-57
2022/06/08 07:49:41;;;;;;;6.32;3.92;;;;;;;25.63;44.36;96465.72;4744216;30;20071;-64
2022/06/08 07:52:12;;;;;;;4.65;3.78;;;;;;;25.68;45.04;96468.69;4736904;30;20064;-57
2022/06/08 07:54:40;;;;;;;5.22;3.28;;;;;;;25.81;45.24;96468.44;4738417;30;20068;-57
2022/06/08 07:57:08;;;;;;;3.90;3.60;;;;;;;25.86;45.36;96433.72;4738575;30;20108;-63
2022/06/08 07:59:36;;;;;;;3.40;3.17;;;;;;;26.41;45.14;96460.34;4743944;30;20060;-63
2022/06/08 08:02:05;;;;;;;4.55;4.13;;;;;;;26.53;43.97;96462.91;4738846;30;20086;-63
2022/06/08 08:04:32;;;;;;;4.53;3.55;;;;;;;26.65;44.27;96466.75;4743935;30;20068;-64
2022/06/08 08:06:58;;;;;;;4.20;3.40;;;;;;;26.53;43.12;96428.00;4743798;30;20440;-62
2022/06/08 08:09:25;;;;;;;3.88;3.53;;;;;;;24.86;43.06;96184.97;4736562;30;20064;-59
2022/06/08 08:11:54;;;;;;;3.10;2.90;;;;;;;26.74;43.15;96443.91;4740146;30;20559;-64
2022/06/08 08:14:23;;;;;;;4.38;3.50;;;;;;;27.00;43.17;96427.78;4743461;30;20393;-59
2022/06/08 08:16:50;;;;;;;4.38;3.55;;;;;;;27.57;42.27;96468.72;4743669;30;20543;-59
2022/06/08 08:19:19;;;;;;;5.10;4.30;;;;;;;27.55;42.09;96450.59;4747154;30;20060;-58
2022/06/08 08:21:47;;;;;;;5.70;3.70;;;;;;;27.85;42.09;96458.50;4737877;30;20060;-65
2022/06/08 08:24:15;;;;;;;3.70;3.40;;;;;;;28.00;41.50;96453.53;4743711;30;20139;-58
2022/06/08 08:26:46;;;;;;;4.95;3.60;;;;;;;28.66;40.37;96453.47;4739917;30;20064;-69
2022/06/08 08:29:13;;;;;;;4.15;3.85;;;;;;;28.61;40.40;96450.59;4740739;30;20453;-62
2022/06/08 08:31:41;;;;;;;4.25;4.00;;;;;;;28.67;40.90;96454.25;4743521;30;20437;-60
2022/06/08 08:34:08;;;;;;;4.35;3.95;;;;;;;26.52;42.91;96420.78;4742921;30;20060;-58
2022/06/08 08:36:35;;;;;;;3.72;3.42;;;;;;;27.55;41.47;96453.44;4742130;30;20095;-58
2022/06/08 08:39:03;;;;;;;4.93;3.63;;;;;;;27.71;41.71;96453.66;4742377;30;20090;-63
2022/06/08 08:44:26;;;;;;;4.45;4.05;;;;;;;27.63;41.84;96441.13;4742669;30;20064;-62
2022/06/08 08:47:01;;;;;;;5.82;3.08;;;;;;;27.47;42.14;96450.25;4758488;30;20083;-60
2022/06/08 08:49:32;;;;;;;3.67;3.38;;;;;;;27.57;42.12;96451.66;4743292;30;20414;-58
2022/06/08 08:52:02;;;;;;;4.30;3.90;;;;;;;27.60;42.87;96444.97;4742642;30;20071;-59
2022/06/08 08:54:38;;;;;;;6.97;3.53;;;;;;;27.64;42.49;96445.56;4742124;30;20056;-64
2022/06/08 08:57:11;;;;;;;4.75;3.40;;;;;;;27.93;41.21;96453.19;4742226;30;20060;-58
2022/06/08 08:59:44;;;;;;;5.22;3.22;;;;;;;28.41;40.55;96453.44;4743102;30;20866;-60
2022/06/08 09:03:14;;;;;;;4.82;3.88;;;;;;;28.63;38.75;96408.13;4742646;30;20064;-59
2022/06/08 09:05:22;;;;;;;5.22;4.55;;;;;;;29.15;38.57;96449.53;4743252;30;20071;-68
2022/06/08 09:07:49;;;;;;;3.95;3.65;;;;;;;29.42;39.06;96440.34;4743567;30;20075;-59
2022/06/08 09:10:20;;;;;;;4.05;3.70;;;;;;;29.66;38.25;96437.91;4742949;30;20068;-59
2022/06/08 09:12:47;;;;;;;3.83;3.53;;;;;;;29.42;38.10;96448.91;4743070;30;20464;-68
2022/06/08 09:15:18;;;;;;;6.65;4.15;;;;;;;29.44;38.41;96441.41;4741664;30;20235;-59
2022/06/08 09:17:56;;;;;;;3.70;3.40;;;;;;;29.52;37.81;96438.84;4743034;30;20095;-59
2022/06/08 09:20:34;;;;;;;5.70;3.63;;;;;;;28.94;39.17;96445.97;4742787;30;20598;-58
2022/06/08 09:23:20;;;;;;;5.40;3.60;;;;;;;28.66;40.11;96447.00;4743354;30;20060;-59
2022/06/08 09:26:04;;;;;;;3.67;3.45;;;;;;;28.44;40.20;96446.78;4756051;30;20060;-60
2022/06/08 09:28:32;;;;;;;6.78;3.70;;;;;;;28.10;40.21;96445.63;4741675;30;20380;-58
2022/06/08 09:30:59;;;;;;;4.55;3.90;;;;;;;27.81;41.02;96452.25;4755849;30;20060;-67
2022/06/08 09:33:34;;;;;;;6.72;5.03;;;;;;;27.52;41.29;96451.59;4743061;30;20068;-68
2022/06/08 09:36:08;;;;;;;5.28;4.25;;;;;;;27.06;41.45;96396.59;4742490;30;20067;-60
2022/06/08 09:38:40;;;;;;;6.35;3.88;;;;;;;27.21;41.46;96443.63;4742540;30;20064;-59
2022/06/08 09:41:13;;;;;;;4.32;4.03;;;;;;;27.09;42.52;96441.91;4741940;30;20529;-71
2022/06/08 09:43:43;;;;;;;3.60;3.17;;;;;;;26.66;42.46;96442.75;4747279;30;20067;-64
2022/06/08 09:51:25;;;;;;;4.50;3.63;;;;;;;26.57;42.67;96445.66;4752409;30;20134;-57
2022/06/08 09:52:40;;;;;;;4.63;3.30;;;;;;;26.17;43.39;96439.75;4745607;30;20079;-64
2022/06/08 09:55:54;;;;;;;3.58;3.25;;;;;;;25.92;44.26;96443.13;4731609;30;20064;-58
2022/06/08 09:58:44;;;;;;;5.50;3.78;;;;;;;26.06;43.93;96445.22;4708321;30;20072;-58
2022/06/08 10:01:24;;;;;;;11.15;6.95;;;;;;;25.84;44.38;96430.56;4707787;30;20196;-65
2022/06/08 10:03:57;;;;;;;6.13;3.75;;;;;;;25.96;44.55;96440.84;4733862;30;20072;-59
2022/06/08 10:06:52;;;;;;;4.25;3.50;;;;;;;25.77;44.51;96433.75;4759098;30;20097;-65
2022/06/08 10:09:39;;;;;;;4.47;3.53;;;;;;;25.97;44.27;96439.59;4759095;30;20573;-59
2022/06/08 10:12:05;;;;;;;7.20;4.07;;;;;;;25.75;44.39;96442.00;4746030;30;20060;-64
2022/06/08 10:15:01;;;;;;;3.65;3.28;;;;;;;26.06;43.76;96436.69;4746419;30;20068;-64
2022/06/08 10:17:38;;;;;;;5.10;3.72;;;;;;;26.37;43.85;96431.34;4745885;30;20064;-58
2022/06/08 10:20:12;;;;;;;3.13;2.92;;;;;;;26.56;42.15;96398.63;4729060;30;20509;-57
2022/06/08 10:22:43;;;;;;;3.40;3.05;;;;;;;26.70;42.28;96431.94;4745123;30;20527;-64
2022/06/08 10:25:34;;;;;;;9.63;4.90;;;;;;;26.94;42.81;96432.59;4746101;30;20063;-58
2022/06/08 10:28:12;;;;;;;8.90;3.90;;;;;;;27.02;43.91;96433.75;4746224;30;20060;-58
2022/06/08 10:31:26;;;;;;;3.60;3.30;;;;;;;27.14;42.78;96438.31;4745807;30;20078;-65
2022/06/08 10:34:13;;;;;;;6.05;3.30;;;;;;;27.00;42.94;96439.16;4708328;30;20068;-58
2022/06/08 10:36:44;;;;;;;3.83;3.53;;;;;;;27.23;42.64;96428.91;4707824;30;20065;-65
2022/06/08 10:39:13;;;;;;;4.32;3.42;;;;;;;26.92;43.27;96409.56;4725017;30;20064;-61
2022/06/08 10:44:42;;;;;;;4.28;3.88;;;;;;;27.13;43.18;96422.56;4745299;30;20060;-59
2022/06/08 10:47:12;;;;;;;4.30;3.85;;;;;;;27.01;43.10;96423.66;4745463;30;20449;-61
2022/06/08 10:49:38;;;;;;;3.65;3.35;;;;;;;27.27;42.74;96418.13;4745258;30;20539;-59
2022/06/08 10:52:26;;;;;;;5.75;3.58;;;;;;;27.44;42.39;96417.06;4758210;30;20068;-65
2022/06/08 10:55:13;;;;;;;4.35;3.90;;;;;;;27.36;42.25;96407.38;4743879;30;20067;-64
2022/06/08 10:57:49;;;;;;;3.65;3.35;;;;;;;27.25;42.17;96420.66;4731959;30;20116;-57
2022/06/08 11:00:19;;;;;;;6.82;4.03;;;;;;;27.27;43.11;96413.22;4744557;30;20133;-59
2022/06/08 11:02:51;;;;;;;4.30;3.90;;;;;;;26.98;42.18;96393.38;4754677;30;20276;-58
2022/06/08 11:05:40;;;;;;;4.60;4.13;;;;;;;28.13;40.58;96402.69;4744125;30;20064;-66
2022/06/08 11:08:06;;;;;;;3.90;3.60;;;;;;;27.91;40.86;96396.75;4741778;30;20064;-60
2022/06/08 11:10:51;;;;;;;4.65;3.75;;;;;;;28.06;39.96;96400.25;4744010;30;20056;-66
2022/06/08 11:13:18;;;;;;;4.15;3.72;;;;;;;27.93;40.49;96402.69;4744895;30;20503;-59
2022/06/08 11:16:06;;;;;;;3.53;3.05;;;;;;;27.72;40.99;96386.91;4744214;30;20067;-61
2022/06/08 11:18:51;;;;;;;4.03;3.72;;;;;;;27.56;41.84;96401.72;4745147;30;20099;-60
2022/06/08 11:21:48;;;;;;;4.30;3.55;;;;;;;26.05;42.72;96193.84;4752860;30;20060;-71
2022/06/08 11:24:45;;;;;;;4.22;3.83;;;;;;;27.42;42.67;96396.88;4735936;30;20090;-60
2022/06/08 11:27:20;;;;;;;5.32;4.45;;;;;;;27.25;43.30;96392.97;4740452;30;20528;-61
2022/06/08 11:29:47;;;;;;;3.95;3.55;;;;;;;27.16;42.79;96406.56;4758443;30;20429;-62
2022/06/08 11:32:32;;;;;;;6.03;4.22;;;;;;;27.18;42.83;96392.63;4743930;30;20072;-68
2022/06/08 11:35:53;;;;;;;5.97;3.50;;;;;;;27.17;42.43;96400.38;4744617;30;20067;-68
2022/06/08 11:38:52;;;;;;;5.80;3.63;;;;;;;26.97;43.21;96394.66;4689271;30;20081;-58
2022/06/08 11:41:21;;;;;;;5.15;4.15;;;;;;;26.93;43.03;96399.78;4746793;30;20438;-63
2022/06/08 11:43:54;;;;;;;4.65;3.60;;;;;;;26.90;43.09;96372.34;4744371;30;20175;-61
2022/06/08 11:46:26;;;;;;;3.75;3.22;;;;;;;25.72;42.94;96181.94;4743900;30;20056;-61
2022/06/08 11:48:54;;;;;;;7.05;3.70;;;;;;;26.91;43.67;96393.78;4746162;30;20094;-59
2022/06/08 11:51:31;;;;;;;6.65;3.65;;;;;;;26.35;43.45;96308.94;4752476;30;20063;-68
2022/06/08 11:53:58;;;;;;;4.88;4.38;;;;;;;26.40;44.20;96308.22;4744547;30;20056;-60
2022/06/08 11:56:53;;;;;;;4.07;3.78;;;;;;;27.00;44.12;96381.53;4744060;30;20430;-67
2022/06/08 11:59:20;;;;;;;4.10;3.70;;;;;;;27.02;43.25;96385.41;4757668;30;20064;-68
2022/06/08 12:01:54;;;;;;;4.20;3.35;;;;;;;27.26;43.14;96377.53;4744854;30;20149;-66
2022/06/08 12:04:27;;;;;;;4.43;4.00;;;;;;;27.24;43.14;96382.09;4743731;30;20063;-70
2022/06/08 12:06:56;;;;;;;4.60;3.53;;;;;;;27.30;43.13;96383.00;4743248;30;20068;-59
2022/06/08 12:09:34;;;;;;;4.68;4.28;;;;;;;27.27;42.69;96379.09;4751069;30;20749;-59
2022/06/08 12:12:13;;;;;;;4.03;3.60;;;;;;;27.07;43.55;96381.88;4736131;30;20068;-58
2022/06/08 12:14:41;;;;;;;3.20;3.00;;;;;;;27.07;43.62;96376.19;4743479;30;20095;-61